sensor_id;sensor_type;location;lat;lon;timestamp;P1;durP1;ratioP1;P2;durP2;ratioP2
15878;SDS011;61999;51.514;14.614;2022-09-28T00:01:14;2.03;;;1.40;;
15878;SDS011;61999;51.514;14.614;2022-09-28T00:03:44;1.50;;;1.40;;
15878;SDS011;61999;51.514;14.614;2022-09-28T00:06:14;1.40;;;1.30;;
15878;SDS011;61999;51.514;14.614;2022-09-28T00:08:44;2.13;;;1.43;;
15878;SDS011;61999;51.514;14.614;2022-09-28T00:11:16;1.30;;;1.20;;
15878;SDS011;61999;51.514;14.614;2022-09-28T00:13:47;1.13;;;1.07;;
15878;SDS011;61999;51.514;14.614;2022-09-28T00:16:19;1.20;;;1.10;;
15878;SDS011;61999;51.514;14.614;2022-09-28T00:18:50;1.30;;;1.20;;
15878;SDS011;61999;51.514;14.614;2022-09-28T00:21:19;1.43;;;1.30;;
15878;SDS011;61999;51.514;14.614;2022-09-28T00:23:50;1.10;;;1.10;;
15878;SDS011;61999;51.514;14.614;2022-09-28T00:26:39;1.20;;;1.10;;
15878;SDS011;61999;51.514;14.614;2022-09-28T00:29:13;1.40;;;1.17;;
15878;SDS011;61999;51.514;14.614;2022-09-28T00:31:49;0.80;;;0.80;;
15878;SDS011;61999;51.514;14.614;2022-09-28T00:34:19;1.30;;;1.20;;
15878;SDS011;61999;51.514;14.614;2022-09-28T00:36:47;1.13;;;1.07;;
15878;SDS011;61999;51.514;14.614;2022-09-28T00:39:15;1.30;;;1.07;;
15878;SDS011;61999;51.514;14.614;2022-09-28T00:41:45;2.50;;;1.50;;
15878;SDS011;61999;51.514;14.614;2022-09-28T00:44:33;3.20;;;1.57;;
15878;SDS011;61999;51.514;14.614;2022-09-28T00:47:13;1.37;;;1.27;;
15878;SDS011;61999;51.514;14.614;2022-09-28T00:50:04;1.90;;;1.50;;
15878;SDS011;61999;51.514;14.614;2022-09-28T00:52:41;2.27;;;1.47;;
15878;SDS011;61999;51.514;14.614;2022-09-28T00:55:16;1.47;;;1.37;;
15878;SDS011;61999;51.514;14.614;2022-09-28T00:57:56;1.40;;;1.30;;
15878;SDS011;61999;51.514;14.614;2022-09-28T01:00:29;1.50;;;1.40;;
15878;SDS011;61999;51.514;14.614;2022-09-28T01:02:57;3.33;;;2.33;;
15878;SDS011;61999;51.514;14.614;2022-09-28T01:05:25;1.40;;;1.30;;
15878;SDS011;61999;51.514;14.614;2022-09-28T01:07:54;1.83;;;1.53;;
15878;SDS011;61999;51.514;14.614;2022-09-28T01:10:23;1.53;;;1.30;;
15878;SDS011;61999;51.514;14.614;2022-09-28T01:12:55;2.17;;;1.33;;
15878;SDS011;61999;51.514;14.614;2022-09-28T01:15:25;1.37;;;1.10;;
15878;SDS011;61999;51.514;14.614;2022-09-28T01:17:59;1.27;;;1.17;;
15878;SDS011;61999;51.514;14.614;2022-09-28T01:20:44;1.20;;;1.10;;
15878;SDS011;61999;51.514;14.614;2022-09-28T01:23:24;3.13;;;1.20;;
15878;SDS011;61999;51.514;14.614;2022-09-28T01:29:34;1.33;;;1.20;;
15878;SDS011;61999;51.514;14.614;2022-09-28T01:32:22;1.57;;;1.30;;
15878;SDS011;61999;51.514;14.614;2022-09-28T01:35:02;1.20;;;1.10;;
15878;SDS011;61999;51.514;14.614;2022-09-28T01:37:38;1.97;;;1.27;;
15878;SDS011;61999;51.514;14.614;2022-09-28T01:40:12;0.90;;;0.90;;
15878;SDS011;61999;51.514;14.614;2022-09-28T01:42:44;1.37;;;1.10;;
15878;SDS011;61999;51.514;14.614;2022-09-28T01:45:20;0.93;;;0.93;;
15878;SDS011;61999;51.514;14.614;2022-09-28T01:47:54;1.20;;;1.10;;
15878;SDS011;61999;51.514;14.614;2022-09-28T01:50:28;2.23;;;1.20;;
15878;SDS011;61999;51.514;14.614;2022-09-28T01:53:04;3.10;;;1.27;;
15878;SDS011;61999;51.514;14.614;2022-09-28T01:55:40;1.83;;;1.40;;
15878;SDS011;61999;51.514;14.614;2022-09-28T01:58:16;1.10;;;1.00;;
15878;SDS011;61999;51.514;14.614;2022-09-28T02:00:55;2.33;;;1.17;;
15878;SDS011;61999;51.514;14.614;2022-09-28T02:03:30;0.90;;;0.90;;
15878;SDS011;61999;51.514;14.614;2022-09-28T02:06:07;0.90;;;0.80;;
15878;SDS011;61999;51.514;14.614;2022-09-28T02:08:44;1.37;;;1.10;;
15878;SDS011;61999;51.514;14.614;2022-09-28T02:11:19;3.40;;;0.90;;
15878;SDS011;61999;51.514;14.614;2022-09-28T02:13:51;1.20;;;1.10;;
15878;SDS011;61999;51.514;14.614;2022-09-28T02:16:28;0.97;;;0.97;;
15878;SDS011;61999;51.514;14.614;2022-09-28T02:19:03;0.80;;;0.80;;
15878;SDS011;61999;51.514;14.614;2022-09-28T02:21:37;1.07;;;0.87;;
15878;SDS011;61999;51.514;14.614;2022-09-28T02:24:13;1.03;;;0.90;;
15878;SDS011;61999;51.514;14.614;2022-09-28T02:26:49;1.13;;;1.03;;
15878;SDS011;61999;51.514;14.614;2022-09-28T02:29:21;1.13;;;0.73;;
15878;SDS011;61999;51.514;14.614;2022-09-28T02:31:49;1.70;;;0.90;;
15878;SDS011;61999;51.514;14.614;2022-09-28T02:34:18;0.80;;;0.80;;
15878;SDS011;61999;51.514;14.614;2022-09-28T02:36:46;0.87;;;0.87;;
15878;SDS011;61999;51.514;14.614;2022-09-28T02:39:14;1.13;;;0.90;;
15878;SDS011;61999;51.514;14.614;2022-09-28T02:41:47;2.53;;;0.90;;
15878;SDS011;61999;51.514;14.614;2022-09-28T02:44:33;0.80;;;0.80;;
15878;SDS011;61999;51.514;14.614;2022-09-28T02:47:35;1.57;;;0.90;;
15878;SDS011;61999;51.514;14.614;2022-09-28T02:50:26;1.00;;;0.90;;
15878;SDS011;61999;51.514;14.614;2022-09-28T02:56:45;1.17;;;1.10;;
15878;SDS011;61999;51.514;14.614;2022-09-28T02:59:45;2.23;;;1.17;;
15878;SDS011;61999;51.514;14.614;2022-09-28T03:02:23;1.07;;;1.07;;
15878;SDS011;61999;51.514;14.614;2022-09-28T03:05:03;1.37;;;1.00;;
15878;SDS011;61999;51.514;14.614;2022-09-28T03:07:43;0.80;;;0.80;;
15878;SDS011;61999;51.514;14.614;2022-09-28T03:10:23;1.03;;;1.03;;
15878;SDS011;61999;51.514;14.614;2022-09-28T03:13:00;2.13;;;1.10;;
15878;SDS011;61999;51.514;14.614;2022-09-28T03:15:33;0.97;;;0.97;;
15878;SDS011;61999;51.514;14.614;2022-09-28T03:18:02;1.00;;;1.00;;
15878;SDS011;61999;51.514;14.614;2022-09-28T03:20:31;0.90;;;0.90;;
15878;SDS011;61999;51.514;14.614;2022-09-28T03:23:00;0.87;;;0.87;;
15878;SDS011;61999;51.514;14.614;2022-09-28T03:25:48;1.77;;;1.20;;
15878;SDS011;61999;51.514;14.614;2022-09-28T03:28:16;1.00;;;1.00;;
15878;SDS011;61999;51.514;14.614;2022-09-28T03:30:45;1.07;;;0.97;;
15878;SDS011;61999;51.514;14.614;2022-09-28T03:33:13;1.50;;;1.10;;
15878;SDS011;61999;51.514;14.614;2022-09-28T03:35:41;1.00;;;0.90;;
15878;SDS011;61999;51.514;14.614;2022-09-28T03:38:12;0.90;;;0.90;;
15878;SDS011;61999;51.514;14.614;2022-09-28T03:40:40;0.97;;;0.93;;
15878;SDS011;61999;51.514;14.614;2022-09-28T03:43:08;1.10;;;1.00;;
15878;SDS011;61999;51.514;14.614;2022-09-28T03:45:36;1.30;;;1.20;;
15878;SDS011;61999;51.514;14.614;2022-09-28T03:48:05;1.10;;;1.00;;
15878;SDS011;61999;51.514;14.614;2022-09-28T03:50:33;1.13;;;1.13;;
15878;SDS011;61999;51.514;14.614;2022-09-28T03:53:02;1.50;;;1.40;;
15878;SDS011;61999;51.514;14.614;2022-09-28T03:55:31;1.63;;;1.23;;
15878;SDS011;61999;51.514;14.614;2022-09-28T03:57:59;1.57;;;1.10;;
15878;SDS011;61999;51.514;14.614;2022-09-28T04:00:26;1.00;;;1.00;;
15878;SDS011;61999;51.514;14.614;2022-09-28T04:02:55;1.17;;;1.10;;
15878;SDS011;61999;51.514;14.614;2022-09-28T04:05:24;1.13;;;1.07;;
15878;SDS011;61999;51.514;14.614;2022-09-28T04:07:52;0.90;;;0.90;;
15878;SDS011;61999;51.514;14.614;2022-09-28T04:10:22;0.90;;;0.90;;
15878;SDS011;61999;51.514;14.614;2022-09-28T04:12:52;0.80;;;0.80;;
15878;SDS011;61999;51.514;14.614;2022-09-28T04:15:21;1.10;;;1.00;;
15878;SDS011;61999;51.514;14.614;2022-09-28T04:17:49;0.90;;;0.90;;
15878;SDS011;61999;51.514;14.614;2022-09-28T04:20:18;1.17;;;1.07;;
15878;SDS011;61999;51.514;14.614;2022-09-28T04:22:47;1.73;;;1.00;;
15878;SDS011;61999;51.514;14.614;2022-09-28T04:25:15;1.20;;;1.10;;
15878;SDS011;61999;51.514;14.614;2022-09-28T04:27:43;1.20;;;1.10;;
15878;SDS011;61999;51.514;14.614;2022-09-28T04:30:29;1.60;;;1.47;;
15878;SDS011;61999;51.514;14.614;2022-09-28T04:32:56;1.90;;;1.67;;
15878;SDS011;61999;51.514;14.614;2022-09-28T04:35:24;2.27;;;1.53;;
15878;SDS011;61999;51.514;14.614;2022-09-28T04:37:53;1.97;;;1.63;;
15878;SDS011;61999;51.514;14.614;2022-09-28T04:40:21;1.60;;;1.50;;
15878;SDS011;61999;51.514;14.614;2022-09-28T04:42:52;1.40;;;1.30;;
15878;SDS011;61999;51.514;14.614;2022-09-28T04:45:21;1.70;;;1.60;;
15878;SDS011;61999;51.514;14.614;2022-09-28T04:47:51;1.70;;;1.53;;
15878;SDS011;61999;51.514;14.614;2022-09-28T04:50:19;1.77;;;1.67;;
15878;SDS011;61999;51.514;14.614;2022-09-28T04:52:47;1.73;;;1.63;;
15878;SDS011;61999;51.514;14.614;2022-09-28T04:55:16;2.97;;;2.67;;
15878;SDS011;61999;51.514;14.614;2022-09-28T04:57:45;2.67;;;2.47;;
15878;SDS011;61999;51.514;14.614;2022-09-28T05:00:13;5.43;;;3.67;;
15878;SDS011;61999;51.514;14.614;2022-09-28T05:02:42;5.80;;;3.17;;
15878;SDS011;61999;51.514;14.614;2022-09-28T05:05:10;4.87;;;3.80;;
15878;SDS011;61999;51.514;14.614;2022-09-28T05:07:38;6.20;;;5.00;;
15878;SDS011;61999;51.514;14.614;2022-09-28T05:10:07;6.80;;;5.03;;
15878;SDS011;61999;51.514;14.614;2022-09-28T05:12:36;6.20;;;4.23;;
15878;SDS011;61999;51.514;14.614;2022-09-28T05:15:04;4.90;;;3.97;;
15878;SDS011;61999;51.514;14.614;2022-09-28T05:17:33;4.57;;;3.63;;
15878;SDS011;61999;51.514;14.614;2022-09-28T05:20:01;5.47;;;3.83;;
15878;SDS011;61999;51.514;14.614;2022-09-28T05:22:29;4.23;;;3.53;;
15878;SDS011;61999;51.514;14.614;2022-09-28T05:24:57;4.83;;;4.10;;
15878;SDS011;61999;51.514;14.614;2022-09-28T05:27:25;3.60;;;3.10;;
15878;SDS011;61999;51.514;14.614;2022-09-28T05:29:54;4.07;;;3.63;;
15878;SDS011;61999;51.514;14.614;2022-09-28T05:32:22;5.40;;;3.93;;
15878;SDS011;61999;51.514;14.614;2022-09-28T05:34:50;4.57;;;3.57;;
15878;SDS011;61999;51.514;14.614;2022-09-28T05:37:18;3.43;;;3.13;;
15878;SDS011;61999;51.514;14.614;2022-09-28T05:39:45;3.93;;;3.50;;
15878;SDS011;61999;51.514;14.614;2022-09-28T05:42:13;4.80;;;3.90;;
15878;SDS011;61999;51.514;14.614;2022-09-28T05:44:41;4.57;;;3.67;;
15878;SDS011;61999;51.514;14.614;2022-09-28T05:47:10;4.90;;;4.40;;
15878;SDS011;61999;51.514;14.614;2022-09-28T05:49:38;10.33;;;7.63;;
15878;SDS011;61999;51.514;14.614;2022-09-28T05:52:07;9.07;;;6.70;;
15878;SDS011;61999;51.514;14.614;2022-09-28T05:54:35;6.40;;;4.50;;
15878;SDS011;61999;51.514;14.614;2022-09-28T05:57:03;4.90;;;4.23;;
15878;SDS011;61999;51.514;14.614;2022-09-28T05:59:32;4.77;;;4.00;;
15878;SDS011;61999;51.514;14.614;2022-09-28T06:02:01;5.97;;;4.17;;
15878;SDS011;61999;51.514;14.614;2022-09-28T06:04:32;4.20;;;3.80;;
15878;SDS011;61999;51.514;14.614;2022-09-28T06:07:00;4.13;;;3.50;;
15878;SDS011;61999;51.514;14.614;2022-09-28T06:09:28;4.20;;;3.67;;
15878;SDS011;61999;51.514;14.614;2022-09-28T06:11:57;4.63;;;4.10;;
15878;SDS011;61999;51.514;14.614;2022-09-28T06:14:25;4.47;;;4.07;;
15878;SDS011;61999;51.514;14.614;2022-09-28T06:16:53;5.47;;;4.03;;
15878;SDS011;61999;51.514;14.614;2022-09-28T06:19:21;3.90;;;3.50;;
15878;SDS011;61999;51.514;14.614;2022-09-28T06:21:50;4.60;;;4.10;;
15878;SDS011;61999;51.514;14.614;2022-09-28T06:24:18;5.77;;;4.13;;
15878;SDS011;61999;51.514;14.614;2022-09-28T06:26:46;3.90;;;3.43;;
15878;SDS011;61999;51.514;14.614;2022-09-28T06:29:13;5.83;;;4.20;;
15878;SDS011;61999;51.514;14.614;2022-09-28T06:31:44;4.43;;;3.93;;
15878;SDS011;61999;51.514;14.614;2022-09-28T06:34:13;4.70;;;3.93;;
15878;SDS011;61999;51.514;14.614;2022-09-28T06:36:41;5.13;;;3.73;;
15878;SDS011;61999;51.514;14.614;2022-09-28T06:39:10;4.00;;;3.60;;
15878;SDS011;61999;51.514;14.614;2022-09-28T06:41:38;4.03;;;3.50;;
15878;SDS011;61999;51.514;14.614;2022-09-28T06:44:06;4.43;;;3.80;;
15878;SDS011;61999;51.514;14.614;2022-09-28T06:46:34;4.13;;;3.73;;
15878;SDS011;61999;51.514;14.614;2022-09-28T06:49:04;4.30;;;3.67;;
15878;SDS011;61999;51.514;14.614;2022-09-28T06:51:34;3.50;;;3.20;;
15878;SDS011;61999;51.514;14.614;2022-09-28T06:54:02;6.17;;;4.07;;
15878;SDS011;61999;51.514;14.614;2022-09-28T06:56:32;4.30;;;3.90;;
15878;SDS011;61999;51.514;14.614;2022-09-28T06:59:00;3.97;;;3.37;;
15878;SDS011;61999;51.514;14.614;2022-09-28T07:01:28;4.20;;;3.40;;
15878;SDS011;61999;51.514;14.614;2022-09-28T07:03:56;5.50;;;3.30;;
15878;SDS011;61999;51.514;14.614;2022-09-28T07:06:24;6.07;;;3.40;;
15878;SDS011;61999;51.514;14.614;2022-09-28T07:08:51;4.33;;;3.93;;
15878;SDS011;61999;51.514;14.614;2022-09-28T07:11:20;4.63;;;3.57;;
15878;SDS011;61999;51.514;14.614;2022-09-28T07:13:53;4.77;;;3.67;;
15878;SDS011;61999;51.514;14.614;2022-09-28T07:16:21;6.33;;;4.30;;
15878;SDS011;61999;51.514;14.614;2022-09-28T07:18:51;4.10;;;3.70;;
15878;SDS011;61999;51.514;14.614;2022-09-28T07:21:19;3.90;;;3.50;;
15878;SDS011;61999;51.514;14.614;2022-09-28T07:23:53;4.87;;;3.50;;
15878;SDS011;61999;51.514;14.614;2022-09-28T07:26:21;3.97;;;3.57;;
15878;SDS011;61999;51.514;14.614;2022-09-28T07:28:50;4.00;;;3.10;;
15878;SDS011;61999;51.514;14.614;2022-09-28T07:31:20;4.47;;;4.07;;
15878;SDS011;61999;51.514;14.614;2022-09-28T07:33:50;4.00;;;3.60;;
15878;SDS011;61999;51.514;14.614;2022-09-28T07:36:19;4.80;;;4.00;;
15878;SDS011;61999;51.514;14.614;2022-09-28T07:38:47;4.17;;;3.27;;
15878;SDS011;61999;51.514;14.614;2022-09-28T07:41:15;4.40;;;4.00;;
15878;SDS011;61999;51.514;14.614;2022-09-28T07:43:47;4.40;;;4.00;;
15878;SDS011;61999;51.514;14.614;2022-09-28T07:46:17;5.90;;;3.80;;
15878;SDS011;61999;51.514;14.614;2022-09-28T07:48:46;4.40;;;3.87;;
15878;SDS011;61999;51.514;14.614;2022-09-28T07:51:16;3.80;;;3.50;;
15878;SDS011;61999;51.514;14.614;2022-09-28T07:53:45;4.63;;;3.40;;
15878;SDS011;61999;51.514;14.614;2022-09-28T07:56:13;4.50;;;4.10;;
15878;SDS011;61999;51.514;14.614;2022-09-28T07:58:42;3.30;;;3.00;;
15878;SDS011;61999;51.514;14.614;2022-09-28T08:01:10;3.60;;;3.30;;
15878;SDS011;61999;51.514;14.614;2022-09-28T08:03:41;3.77;;;3.47;;
15878;SDS011;61999;51.514;14.614;2022-09-28T08:06:13;4.93;;;4.00;;
15878;SDS011;61999;51.514;14.614;2022-09-28T08:08:43;5.63;;;3.83;;
15878;SDS011;61999;51.514;14.614;2022-09-28T08:11:11;3.80;;;3.23;;
15878;SDS011;61999;51.514;14.614;2022-09-28T08:13:42;3.93;;;3.50;;
15878;SDS011;61999;51.514;14.614;2022-09-28T08:16:11;4.00;;;3.70;;
15878;SDS011;61999;51.514;14.614;2022-09-28T08:18:39;4.27;;;3.87;;
15878;SDS011;61999;51.514;14.614;2022-09-28T08:21:09;3.90;;;3.60;;
15878;SDS011;61999;51.514;14.614;2022-09-28T08:23:54;3.80;;;3.50;;
15878;SDS011;61999;51.514;14.614;2022-09-28T08:26:22;4.20;;;3.87;;
15878;SDS011;61999;51.514;14.614;2022-09-28T08:28:50;5.40;;;3.03;;
15878;SDS011;61999;51.514;14.614;2022-09-28T08:31:18;4.07;;;3.53;;
15878;SDS011;61999;51.514;14.614;2022-09-28T08:33:46;3.90;;;3.60;;
15878;SDS011;61999;51.514;14.614;2022-09-28T08:36:19;3.57;;;3.27;;
15878;SDS011;61999;51.514;14.614;2022-09-28T08:38:47;3.57;;;3.37;;
15878;SDS011;61999;51.514;14.614;2022-09-28T08:41:16;3.40;;;3.10;;
15878;SDS011;61999;51.514;14.614;2022-09-28T08:44:04;3.00;;;2.80;;
15878;SDS011;61999;51.514;14.614;2022-09-28T08:46:50;3.30;;;3.00;;
15878;SDS011;61999;51.514;14.614;2022-09-28T08:49:25;2.80;;;2.60;;
15878;SDS011;61999;51.514;14.614;2022-09-28T08:52:04;3.17;;;2.87;;
15878;SDS011;61999;51.514;14.614;2022-09-28T08:54:42;2.93;;;2.73;;
15878;SDS011;61999;51.514;14.614;2022-09-28T08:57:19;2.90;;;2.70;;
15878;SDS011;61999;51.514;14.614;2022-09-28T08:59:52;2.93;;;2.73;;
15878;SDS011;61999;51.514;14.614;2022-09-28T09:02:22;2.80;;;2.60;;
15878;SDS011;61999;51.514;14.614;2022-09-28T09:04:58;3.03;;;2.83;;
15878;SDS011;61999;51.514;14.614;2022-09-28T09:07:37;3.47;;;2.93;;
15878;SDS011;61999;51.514;14.614;2022-09-28T09:10:33;2.90;;;2.63;;
15878;SDS011;61999;51.514;14.614;2022-09-28T09:13:22;3.13;;;2.93;;
15878;SDS011;61999;51.514;14.614;2022-09-28T09:16:13;2.77;;;2.57;;
15878;SDS011;61999;51.514;14.614;2022-09-28T09:19:01;2.70;;;2.50;;
15878;SDS011;61999;51.514;14.614;2022-09-28T09:21:43;2.60;;;2.40;;
15878;SDS011;61999;51.514;14.614;2022-09-28T09:24:28;2.60;;;2.40;;
15878;SDS011;61999;51.514;14.614;2022-09-28T09:27:13;2.60;;;2.40;;
15878;SDS011;61999;51.514;14.614;2022-09-28T09:30:02;3.03;;;2.80;;
15878;SDS011;61999;51.514;14.614;2022-09-28T09:32:51;3.93;;;3.57;;
15878;SDS011;61999;51.514;14.614;2022-09-28T09:36:00;3.50;;;3.20;;
15878;SDS011;61999;51.514;14.614;2022-09-28T09:38:56;3.00;;;2.80;;
15878;SDS011;61999;51.514;14.614;2022-09-28T09:41:44;3.10;;;2.90;;
15878;SDS011;61999;51.514;14.614;2022-09-28T09:44:34;3.93;;;2.80;;
15878;SDS011;61999;51.514;14.614;2022-09-28T09:47:30;2.90;;;2.70;;
15878;SDS011;61999;51.514;14.614;2022-09-28T09:50:07;2.60;;;2.40;;
15878;SDS011;61999;51.514;14.614;2022-09-28T09:52:47;2.80;;;2.60;;
15878;SDS011;61999;51.514;14.614;2022-09-28T09:55:21;3.77;;;3.30;;
15878;SDS011;61999;51.514;14.614;2022-09-28T09:57:58;3.70;;;3.40;;
15878;SDS011;61999;51.514;14.614;2022-09-28T10:00:36;3.43;;;3.23;;
15878;SDS011;61999;51.514;14.614;2022-09-28T10:03:12;4.83;;;4.47;;
15878;SDS011;61999;51.514;14.614;2022-09-28T10:05:55;3.57;;;2.77;;
15878;SDS011;61999;51.514;14.614;2022-09-28T10:08:29;3.27;;;2.97;;
15878;SDS011;61999;51.514;14.614;2022-09-28T10:11:06;3.10;;;2.80;;
15878;SDS011;61999;51.514;14.614;2022-09-28T10:13:44;6.27;;;4.93;;
15878;SDS011;61999;51.514;14.614;2022-09-28T10:16:14;3.17;;;2.97;;
15878;SDS011;61999;51.514;14.614;2022-09-28T10:18:44;2.90;;;2.70;;
15878;SDS011;61999;51.514;14.614;2022-09-28T10:21:14;3.10;;;2.77;;
15878;SDS011;61999;51.514;14.614;2022-09-28T10:23:47;4.00;;;3.60;;
15878;SDS011;61999;51.514;14.614;2022-09-28T10:26:23;3.47;;;3.10;;
15878;SDS011;61999;51.514;14.614;2022-09-28T10:29:00;3.33;;;3.00;;
15878;SDS011;61999;51.514;14.614;2022-09-28T10:31:38;3.37;;;3.17;;
15878;SDS011;61999;51.514;14.614;2022-09-28T10:34:09;3.43;;;3.13;;
15878;SDS011;61999;51.514;14.614;2022-09-28T10:36:44;6.23;;;5.47;;
15878;SDS011;61999;51.514;14.614;2022-09-28T10:39:25;3.50;;;3.07;;
15878;SDS011;61999;51.514;14.614;2022-09-28T10:41:59;3.23;;;3.03;;
15878;SDS011;61999;51.514;14.614;2022-09-28T10:44:33;3.10;;;2.70;;
15878;SDS011;61999;51.514;14.614;2022-09-28T10:47:17;4.73;;;4.33;;
15878;SDS011;61999;51.514;14.614;2022-09-28T10:49:48;3.37;;;3.10;;
15878;SDS011;61999;51.514;14.614;2022-09-28T10:58:16;3.60;;;3.00;;
15878;SDS011;61999;51.514;14.614;2022-09-28T11:00:53;2.77;;;2.57;;
15878;SDS011;61999;51.514;14.614;2022-09-28T11:03:28;4.73;;;2.50;;
15878;SDS011;61999;51.514;14.614;2022-09-28T11:05:58;2.60;;;2.40;;
15878;SDS011;61999;51.514;14.614;2022-09-28T11:08:30;2.40;;;2.20;;
15878;SDS011;61999;51.514;14.614;2022-09-28T11:11:06;2.70;;;2.50;;
15878;SDS011;61999;51.514;14.614;2022-09-28T11:13:43;2.67;;;2.30;;
15878;SDS011;61999;51.514;14.614;2022-09-28T11:16:26;2.63;;;2.40;;
15878;SDS011;61999;51.514;14.614;2022-09-28T11:18:56;2.30;;;2.07;;
15878;SDS011;61999;51.514;14.614;2022-09-28T11:21:39;3.07;;;2.60;;
15878;SDS011;61999;51.514;14.614;2022-09-28T11:24:18;2.53;;;2.33;;
15878;SDS011;61999;51.514;14.614;2022-09-28T11:26:51;15.33;;;2.87;;
15878;SDS011;61999;51.514;14.614;2022-09-28T11:29:23;2.50;;;2.30;;
15878;SDS011;61999;51.514;14.614;2022-09-28T11:32:02;2.77;;;2.57;;
15878;SDS011;61999;51.514;14.614;2022-09-28T11:34:34;3.57;;;3.27;;
15878;SDS011;61999;51.514;14.614;2022-09-28T11:37:27;2.97;;;2.77;;
15878;SDS011;61999;51.514;14.614;2022-09-28T11:40:24;3.30;;;2.53;;
15878;SDS011;61999;51.514;14.614;2022-09-28T11:43:09;3.30;;;3.00;;
15878;SDS011;61999;51.514;14.614;2022-09-28T11:45:52;6.13;;;4.40;;
15878;SDS011;61999;51.514;14.614;2022-09-28T11:48:31;4.27;;;3.77;;
15878;SDS011;61999;51.514;14.614;2022-09-28T11:51:09;3.37;;;3.07;;
15878;SDS011;61999;51.514;14.614;2022-09-28T11:53:46;2.67;;;2.47;;
15878;SDS011;61999;51.514;14.614;2022-09-28T11:56:26;3.23;;;2.93;;
15878;SDS011;61999;51.514;14.614;2022-09-28T11:59:02;2.03;;;1.80;;
15878;SDS011;61999;51.514;14.614;2022-09-28T12:01:39;3.40;;;2.37;;
15878;SDS011;61999;51.514;14.614;2022-09-28T12:04:15;2.10;;;1.93;;
15878;SDS011;61999;51.514;14.614;2022-09-28T12:06:53;4.60;;;4.13;;
15878;SDS011;61999;51.514;14.614;2022-09-28T12:09:31;2.60;;;2.20;;
15878;SDS011;61999;51.514;14.614;2022-09-28T12:12:15;2.37;;;2.17;;
15878;SDS011;61999;51.514;14.614;2022-09-28T12:14:51;2.20;;;1.97;;
15878;SDS011;61999;51.514;14.614;2022-09-28T12:17:27;3.70;;;3.40;;
15878;SDS011;61999;51.514;14.614;2022-09-28T12:20:09;4.13;;;3.83;;
15878;SDS011;61999;51.514;14.614;2022-09-28T12:22:48;4.43;;;4.03;;
15878;SDS011;61999;51.514;14.614;2022-09-28T12:25:32;4.57;;;4.17;;
15878;SDS011;61999;51.514;14.614;2022-09-28T12:28:13;6.53;;;5.93;;
15878;SDS011;61999;51.514;14.614;2022-09-28T12:30:59;2.70;;;2.50;;
15878;SDS011;61999;51.514;14.614;2022-09-28T12:33:41;3.00;;;2.13;;
15878;SDS011;61999;51.514;14.614;2022-09-28T12:36:17;1.70;;;1.60;;
15878;SDS011;61999;51.514;14.614;2022-09-28T12:39:13;1.77;;;1.60;;
15878;SDS011;61999;51.514;14.614;2022-09-28T12:42:23;2.63;;;1.77;;
15878;SDS011;61999;51.514;14.614;2022-09-28T12:45:16;1.67;;;1.57;;
15878;SDS011;61999;51.514;14.614;2022-09-28T12:48:24;1.80;;;1.50;;
15878;SDS011;61999;51.514;14.614;2022-09-28T12:51:21;3.47;;;2.00;;
15878;SDS011;61999;51.514;14.614;2022-09-28T12:54:10;2.20;;;1.77;;
15878;SDS011;61999;51.514;14.614;2022-09-28T12:57:39;2.53;;;1.70;;
15878;SDS011;61999;51.514;14.614;2022-09-28T13:00:23;1.73;;;1.63;;
15878;SDS011;61999;51.514;14.614;2022-09-28T13:09:15;1.50;;;1.40;;
15878;SDS011;61999;51.514;14.614;2022-09-28T13:11:51;1.30;;;1.20;;
15878;SDS011;61999;51.514;14.614;2022-09-28T13:14:40;1.50;;;1.40;;
15878;SDS011;61999;51.514;14.614;2022-09-28T13:17:44;2.07;;;1.80;;
15878;SDS011;61999;51.514;14.614;2022-09-28T13:20:29;2.43;;;2.20;;
15878;SDS011;61999;51.514;14.614;2022-09-28T13:23:16;2.57;;;1.80;;
15878;SDS011;61999;51.514;14.614;2022-09-28T13:25:50;1.30;;;1.20;;
15878;SDS011;61999;51.514;14.614;2022-09-28T13:28:23;1.80;;;1.20;;
15878;SDS011;61999;51.514;14.614;2022-09-28T13:30:54;1.13;;;0.90;;
15878;SDS011;61999;51.514;14.614;2022-09-28T13:33:28;1.40;;;1.30;;
15878;SDS011;61999;51.514;14.614;2022-09-28T13:36:02;1.60;;;1.50;;
15878;SDS011;61999;51.514;14.614;2022-09-28T13:38:52;1.10;;;1.10;;
15878;SDS011;61999;51.514;14.614;2022-09-28T13:41:22;2.23;;;1.80;;
15878;SDS011;61999;51.514;14.614;2022-09-28T13:44:04;1.57;;;1.47;;
15878;SDS011;61999;51.514;14.614;2022-09-28T13:47:02;2.63;;;1.70;;
15878;SDS011;61999;51.514;14.614;2022-09-28T13:49:49;2.70;;;2.20;;
15878;SDS011;61999;51.514;14.614;2022-09-28T13:52:43;2.30;;;2.10;;
15878;SDS011;61999;51.514;14.614;2022-09-28T13:55:27;1.90;;;1.80;;
15878;SDS011;61999;51.514;14.614;2022-09-28T13:58:04;1.70;;;1.60;;
15878;SDS011;61999;51.514;14.614;2022-09-28T14:00:43;2.57;;;2.00;;
15878;SDS011;61999;51.514;14.614;2022-09-28T14:03:24;3.43;;;3.03;;
15878;SDS011;61999;51.514;14.614;2022-09-28T14:06:07;3.40;;;3.10;;
15878;SDS011;61999;51.514;14.614;2022-09-28T14:12:15;4.60;;;3.90;;
15878;SDS011;61999;51.514;14.614;2022-09-28T14:18:15;3.60;;;3.30;;
15878;SDS011;61999;51.514;14.614;2022-09-28T14:20:57;2.20;;;2.00;;
15878;SDS011;61999;51.514;14.614;2022-09-28T14:23:51;1.90;;;1.80;;
15878;SDS011;61999;51.514;14.614;2022-09-28T14:30:15;2.83;;;2.40;;
15878;SDS011;61999;51.514;14.614;2022-09-28T14:32:51;1.50;;;1.40;;
15878;SDS011;61999;51.514;14.614;2022-09-28T14:35:26;3.70;;;2.80;;
15878;SDS011;61999;51.514;14.614;2022-09-28T14:37:59;1.30;;;1.20;;
15878;SDS011;61999;51.514;14.614;2022-09-28T14:40:57;1.30;;;1.20;;
15878;SDS011;61999;51.514;14.614;2022-09-28T14:43:57;1.37;;;1.27;;
15878;SDS011;61999;51.514;14.614;2022-09-28T14:46:29;1.67;;;1.50;;
15878;SDS011;61999;51.514;14.614;2022-09-28T14:49:01;1.80;;;1.23;;
15878;SDS011;61999;51.514;14.614;2022-09-28T14:52:01;1.00;;;0.90;;
15878;SDS011;61999;51.514;14.614;2022-09-28T14:57:23;1.43;;;1.23;;
15878;SDS011;61999;51.514;14.614;2022-09-28T14:59:56;1.00;;;1.00;;
15878;SDS011;61999;51.514;14.614;2022-09-28T15:02:27;3.10;;;1.40;;
15878;SDS011;61999;51.514;14.614;2022-09-28T15:05:00;4.00;;;1.30;;
15878;SDS011;61999;51.514;14.614;2022-09-28T15:07:42;1.40;;;1.30;;
15878;SDS011;61999;51.514;14.614;2022-09-28T15:10:20;1.77;;;1.40;;
15878;SDS011;61999;51.514;14.614;2022-09-28T15:12:53;1.40;;;1.30;;
15878;SDS011;61999;51.514;14.614;2022-09-28T15:15:24;2.40;;;1.50;;
15878;SDS011;61999;51.514;14.614;2022-09-28T15:18:15;2.03;;;1.67;;
15878;SDS011;61999;51.514;14.614;2022-09-28T15:21:30;4.13;;;1.33;;
15878;SDS011;61999;51.514;14.614;2022-09-28T15:26:55;1.63;;;1.53;;
15878;SDS011;61999;51.514;14.614;2022-09-28T15:29:24;1.40;;;1.30;;
15878;SDS011;61999;51.514;14.614;2022-09-28T15:31:57;1.67;;;1.33;;
15878;SDS011;61999;51.514;14.614;2022-09-28T15:34:29;2.03;;;1.80;;
15878;SDS011;61999;51.514;14.614;2022-09-28T15:37:18;2.73;;;2.53;;
15878;SDS011;61999;51.514;14.614;2022-09-28T15:39:50;2.23;;;2.13;;
15878;SDS011;61999;51.514;14.614;2022-09-28T15:42:21;10.93;;;9.77;;
15878;SDS011;61999;51.514;14.614;2022-09-28T15:44:58;2.93;;;2.73;;
15878;SDS011;61999;51.514;14.614;2022-09-28T15:47:34;3.43;;;3.23;;
15878;SDS011;61999;51.514;14.614;2022-09-28T15:50:04;2.73;;;2.37;;
15878;SDS011;61999;51.514;14.614;2022-09-28T15:52:52;1.90;;;1.80;;
15878;SDS011;61999;51.514;14.614;2022-09-28T15:55:26;1.47;;;1.37;;
15878;SDS011;61999;51.514;14.614;2022-09-28T15:58:04;1.67;;;1.57;;